Time;durP1;ratioP1;P1;durP2;ratioP2;P2;SDS_P1;SDS_P2;PMS_P1;PMS_P2;Temp;Humidity;BMP_temperature;BMP_pressure;BME280_temperature;BME280_humidity;BME280_pressure;Samples;Min_cycle;Max_cycle;Signal;HPM_P1;HPM_P2
2023/02/05 00:00:40;;;;;;;;;;;;;;;;;;5117130;28;19914;-74
2023/02/05 00:03:06;;;;;;;;;;;;;;;;;;5116477;28;19954;-74
2023/02/05 00:05:32;;;;;;;;;;;;;;;;;;5116754;27;19907;-74
2023/02/05 00:07:58;;;;;;;;;;;;;;;;;;5116779;27;19907;-74
2023/02/05 00:10:24;;;;;;;;;;;;;;;;;;5116862;28;19939;-74
2023/02/05 00:12:50;;;;;;;;;;;;;;;;;;5117019;28;19908;-75
2023/02/05 00:15:16;;;;;;;;;;;;;;;;;;5116540;28;19964;-74
2023/02/05 00:17:42;;;;;;;;;;;;;;;;;;5116442;28;20391;-75
2023/02/05 00:20:08;;;;;;;;;;;;;;;;;;5116767;28;19912;-76
2023/02/05 00:22:33;;;;;;;;;;;;;;;;;;5116816;28;19907;-76
2023/02/05 00:24:59;;;;;;;;;;;;;;;;;;5116067;28;19965;-74
2023/02/05 00:27:25;;;;;;;;;;;;;;;;;;5114936;28;19908;-74
2023/02/05 00:29:51;;;;;;;;;;;;;;;;;;5116142;28;19947;-74
2023/02/05 00:32:17;;;;;;;;;;;;;;;;;;5115848;28;19908;-75
2023/02/05 00:34:43;;;;;;;;;;;;;;;;;;5115963;28;20006;-75
2023/02/05 00:37:09;;;;;;;;;;;;;;;;;;5116355;28;19915;-74
2023/02/05 00:39:35;;;;;;;;;;;;;;;;;;5115499;28;19994;-74
2023/02/05 00:42:01;;;;;;;;;;;;;;;;;;5115908;28;19907;-75
2023/02/05 00:44:27;;;;;;;;;;;;;;;;;;5115741;28;19908;-75
2023/02/05 00:46:53;;;;;;;;;;;;;;;;;;5115596;28;19908;-74
2023/02/05 00:49:19;;;;;;;;;;;;;;;;;;5115652;28;20006;-74
2023/02/05 00:51:45;;;;;;;;;;;;;;;;;;5115569;28;19912;-74
2023/02/05 00:54:11;;;;;;;;;;;;;;;;;;5115459;28;19912;-74
2023/02/05 00:56:36;;;;;;;;;;;;;;;;;;5115661;27;19935;-74
2023/02/05 00:59:02;;;;;;;;;;;;;;;;;;5114170;27;20472;-75
2023/02/05 01:01:28;;;;;;;;;;;;;;;;;;5115881;27;19908;-74
2023/02/05 01:03:54;;;;;;;;;;;;;;;;;;5115319;28;19998;-74
2023/02/05 01:06:20;;;;;;;;;;;;;;;;;;5114928;28;19908;-74
2023/02/05 01:08:46;;;;;;;;;;;;;;;;;;5115327;28;20287;-75
2023/02/05 01:11:13;;;;;;;;;;;;;;;;;;5115236;28;20337;-74
2023/02/05 01:13:39;;;;;;;;;;;;;;;;;;5114482;28;19959;-74
2023/02/05 01:16:05;;;;;;;;;;;;;;;;;;5115168;28;19943;-74
2023/02/05 01:18:31;;;;;;;;;;;;;;;;;;5115760;28;19999;-74
2023/02/05 01:20:58;;;;;;;;;;;;;;;;;;5114703;28;19915;-74
2023/02/05 01:23:24;;;;;;;;;;;;;;;;;;5115174;28;19907;-74
2023/02/05 01:25:49;;;;;;;;;;;;;;;;;;5113697;28;19908;-75
2023/02/05 01:28:15;;;;;;;;;;;;;;;;;;5114497;28;19908;-75
2023/02/05 01:30:41;;;;;;;;;;;;;;;;;;5114971;28;20060;-74
2023/02/05 01:33:07;;;;;;;;;;;;;;;;;;5114833;28;19931;-74
2023/02/05 01:35:33;;;;;;;;;;;;;;;;;;5114319;28;20311;-74
2023/02/05 01:37:59;;;;;;;;;;;;;;;;;;5114792;28;20284;-74
2023/02/05 01:40:25;;;;;;;;;;;;;;;;;;5113570;28;20338;-74
2023/02/05 01:42:51;;;;;;;;;;;;;;;;;;5114368;28;19911;-74
2023/02/05 01:45:17;;;;;;;;;;;;;;;;;;5114731;28;19908;-75
2023/02/05 01:47:43;;;;;;;;;;;;;;;;;;5114622;28;19908;-74
2023/02/05 01:50:09;;;;;;;;;;;;;;;;;;5101932;28;19908;-74
2023/02/05 01:52:35;;;;;;;;;;;;;;;;;;5093449;28;19912;-74
2023/02/05 01:55:01;;;;;;;;;;;;;;;;;;5093623;28;19961;-75
2023/02/05 01:57:27;;;;;;;;;;;;;;;;;;5092860;28;20010;-74
2023/02/05 01:59:53;;;;;;;;;;;;;;;;;;5093966;28;19948;-74
2023/02/05 02:02:19;;;;;;;;;;;;;;;;;;5093588;28;19994;-74
2023/02/05 02:04:45;;;;;;;;;;;;;;;;;;5094253;28;19912;-74
2023/02/05 02:07:11;;;;;;;;;;;;;;;;;;5094026;28;19961;-74
2023/02/05 02:09:37;;;;;;;;;;;;;;;;;;5093434;28;19908;-75
2023/02/05 02:12:02;;;;;;;;;;;;;;;;;;5094092;28;19908;-74
2023/02/05 02:14:28;;;;;;;;;;;;;;;;;;5092301;28;19964;-74
2023/02/05 02:16:54;;;;;;;;;;;;;;;;;;5093531;28;19913;-74
2023/02/05 02:19:20;;;;;;;;;;;;;;;;;;5093779;28;19954;-75
2023/02/05 02:21:46;;;;;;;;;;;;;;;;;;5093896;28;19977;-74
2023/02/05 02:24:12;;;;;;;;;;;;;;;;;;5093503;28;19908;-74
2023/02/05 02:26:41;;;;;;;;;;;;;;;;;;5093758;28;20414;-74
2023/02/05 02:29:07;;;;;;;;;;;;;;;;;;5093628;28;19915;-74
2023/02/05 02:31:33;;;;;;;;;;;;;;;;;;5093424;28;19908;-74
2023/02/05 02:33:59;;;;;;;;;;;;;;;;;;5093691;28;19916;-74
2023/02/05 02:36:25;;;;;;;;;;;;;;;;;;5093695;28;20010;-74
2023/02/05 02:38:51;;;;;;;;;;;;;;;;;;5093119;28;19908;-74
2023/02/05 02:41:16;;;;;;;;;;;;;;;;;;5093802;28;19912;-74
2023/02/05 02:43:42;;;;;;;;;;;;;;;;;;5093601;28;20273;-74
2023/02/05 02:46:08;;;;;;;;;;;;;;;;;;5093310;28;20403;-74
2023/02/05 02:48:34;;;;;;;;;;;;;;;;;;5093580;28;20261;-74
2023/02/05 02:51:00;;;;;;;;;;;;;;;;;;5093610;28;20268;-74
2023/02/05 02:53:26;;;;;;;;;;;;;;;;;;5091926;28;20386;-71
2023/02/05 02:55:52;;;;;;;;;;;;;;;;;;5093394;28;20360;-74
2023/02/05 02:58:18;;;;;;;;;;;;;;;;;;5091897;28;19908;-74
2023/02/05 03:00:44;;;;;;;;;;;;;;;;;;5093394;28;19919;-74
2023/02/05 03:03:10;;;;;;;;;;;;;;;;;;5093442;28;19962;-74
2023/02/05 03:05:36;;;;;;;;;;;;;;;;;;5093046;28;19912;-74
2023/02/05 03:08:02;;;;;;;;;;;;;;;;;;5093467;28;20325;-74
2023/02/05 03:10:28;;;;;;;;;;;;;;;;;;5093385;28;19915;-73
2023/02/05 03:12:54;;;;;;;;;;;;;;;;;;5093002;28;19999;-74
2023/02/05 03:15:20;;;;;;;;;;;;;;;;;;5091944;28;20025;-72
2023/02/05 03:17:46;;;;;;;;;;;;;;;;;;5093758;28;20360;-72
2023/02/05 03:20:12;;;;;;;;;;;;;;;;;;5092836;28;19914;-74
2023/02/05 03:22:38;;;;;;;;;;;;;;;;;;5096007;28;19908;-74
2023/02/05 03:25:04;;;;;;;;;;;;;;;;;;5097428;28;19912;-75
2023/02/05 03:27:30;;;;;;;;;;;;;;;;;;5096780;28;20425;-75
2023/02/05 03:29:56;;;;;;;;;;;;;;;;;;5097358;28;20272;-74
2023/02/05 03:32:22;;;;;;;;;;;;;;;;;;5103193;28;19908;-74
2023/02/05 03:34:48;;;;;;;;;;;;;;;;;;5116520;28;19916;-74
2023/02/05 03:37:14;;;;;;;;;;;;;;;;;;5117236;28;20310;-73
2023/02/05 03:39:39;;;;;;;;;;;;;;;;;;5116977;28;20332;-73
2023/02/05 03:42:05;;;;;;;;;;;;;;;;;;5116776;28;20413;-72
2023/02/05 03:44:31;;;;;;;;;;;;;;;;;;5117014;28;20376;-72
2023/02/05 03:46:57;;;;;;;;;;;;;;;;;;5116836;28;19915;-72
2023/02/05 03:49:23;;;;;;;;;;;;;;;;;;5116513;28;19915;-73
2023/02/05 03:51:49;;;;;;;;;;;;;;;;;;5116675;28;19908;-73
2023/02/05 03:54:15;;;;;;;;;;;;;;;;;;5116689;28;19920;-73
2023/02/05 03:56:41;;;;;;;;;;;;;;;;;;5116322;28;19919;-73
2023/02/05 03:59:07;;;;;;;;;;;;;;;;;;5116696;28;19908;-73
2023/02/05 04:01:33;;;;;;;;;;;;;;;;;;5114885;28;19960;-73
2023/02/05 04:03:59;;;;;;;;;;;;;;;;;;5116565;28;19914;-73
2023/02/05 04:06:25;;;;;;;;;;;;;;;;;;5116572;28;19947;-72
2023/02/05 04:08:51;;;;;;;;;;;;;;;;;;5116099;28;20314;-73
2023/02/05 04:11:17;;;;;;;;;;;;;;;;;;5116619;28;19908;-72
2023/02/05 04:13:43;;;;;;;;;;;;;;;;;;5114838;28;19926;-73
2023/02/05 04:16:08;;;;;;;;;;;;;;;;;;5116045;28;19950;-73
2023/02/05 04:18:34;;;;;;;;;;;;;;;;;;5115013;28;20348;-73
2023/02/05 04:21:00;;;;;;;;;;;;;;;;;;5115047;28;19908;-73
2023/02/05 04:23:26;;;;;;;;;;;;;;;;;;5115798;28;19908;-73
2023/02/05 04:25:53;;;;;;;;;;;;;;;;;;5116268;27;19974;-73
2023/02/05 04:28:19;;;;;;;;;;;;;;;;;;5116454;28;19907;-73
2023/02/05 04:30:44;;;;;;;;;;;;;;;;;;5115738;28;20261;-73
2023/02/05 04:33:10;;;;;;;;;;;;;;;;;;5116028;28;19911;-73
2023/02/05 04:35:36;;;;;;;;;;;;;;;;;;5115905;27;19977;-73
2023/02/05 04:38:02;;;;;;;;;;;;;;;;;;5115500;28;19907;-73
2023/02/05 04:40:28;;;;;;;;;;;;;;;;;;5115949;28;19992;-73
2023/02/05 04:42:54;;;;;;;;;;;;;;;;;;5115849;28;19912;-73
2023/02/05 04:45:21;;;;;;;;;;;;;;;;;;5115537;28;20000;-73
2023/02/05 04:47:47;;;;;;;;;;;;;;;;;;5115777;28;19988;-73
2023/02/05 04:50:13;;;;;;;;;;;;;;;;;;5115716;28;19908;-73
2023/02/05 04:52:39;;;;;;;;;;;;;;;;;;5115179;28;19960;-73
2023/02/05 04:55:05;;;;;;;;;;;;;;;;;;5115547;27;19922;-73
2023/02/05 04:57:31;;;;;;;;;;;;;;;;;;5115594;28;19907;-73
2023/02/05 04:59:57;;;;;;;;;;;;;;;;;;5115141;28;20049;-73
2023/02/05 05:02:23;;;;;;;;;;;;;;;;;;5115507;28;19915;-73
2023/02/05 05:04:49;;;;;;;;;;;;;;;;;;5113719;28;19908;-73
2023/02/05 05:07:15;;;;;;;;;;;;;;;;;;5114057;28;19919;-73
2023/02/05 05:09:41;;;;;;;;;;;;;;;;;;5115289;28;19907;-73
2023/02/05 05:12:07;;;;;;;;;;;;;;;;;;5113484;28;19915;-73
2023/02/05 05:14:33;;;;;;;;;;;;;;;;;;5115041;28;20014;-73
2023/02/05 05:16:58;;;;;;;;;;;;;;;;;;5115426;28;19933;-73
2023/02/05 05:19:24;;;;;;;;;;;;;;;;;;5114791;28;19964;-73
2023/02/05 05:21:50;;;;;;;;;;;;;;;;;;5113729;28;19908;-73
2023/02/05 05:24:16;;;;;;;;;;;;;;;;;;5115135;27;19908;-73
2023/02/05 05:26:45;;;;;;;;;;;;;;;;;;5114581;28;19916;-73
2023/02/05 05:29:11;;;;;;;;;;;;;;;;;;5114989;28;19908;-73
2023/02/05 05:31:37;;;;;;;;;;;;;;;;;;5115342;28;19914;-73
2023/02/05 05:34:02;;;;;;;;;;;;;;;;;;5114451;28;19965;-73
2023/02/05 05:36:29;;;;;;;;;;;;;;;;;;5114880;28;19911;-73
2023/02/05 05:38:55;;;;;;;;;;;;;;;;;;5114833;28;19912;-73
2023/02/05 05:44:05;;;;;;;;;;;;;;;;;;5114455;28;20367;-73
2023/02/05 05:46:31;;;;;;;;;;;;;;;;;;5114702;28;19947;-73
2023/02/05 05:48:57;;;;;;;;;;;;;;;;;;5114283;28;20283;-73
2023/02/05 05:51:23;;;;;;;;;;;;;;;;;;5113331;28;19947;-73
2023/02/05 05:53:49;;;;;;;;;;;;;;;;;;5114480;28;19953;-73
2023/02/05 05:56:15;;;;;;;;;;;;;;;;;;5114114;28;19908;-73
2023/02/05 05:58:41;;;;;;;;;;;;;;;;;;5114585;28;19912;-73
2023/02/05 06:01:07;;;;;;;;;;;;;;;;;;5114409;28;20343;-74
2023/02/05 06:03:33;;;;;;;;;;;;;;;;;;5114524;28;19908;-73
2023/02/05 06:05:59;;;;;;;;;;;;;;;;;;5114418;28;19912;-73
2023/02/05 06:08:25;;;;;;;;;;;;;;;;;;5113992;28;20341;-73
2023/02/05 06:10:50;;;;;;;;;;;;;;;;;;5114706;28;20264;-73
2023/02/05 06:13:16;;;;;;;;;;;;;;;;;;5112895;28;20348;-72
2023/02/05 06:15:42;;;;;;;;;;;;;;;;;;5113924;28;19916;-73
2023/02/05 06:18:08;;;;;;;;;;;;;;;;;;5114830;28;19947;-73
2023/02/05 06:20:34;;;;;;;;;;;;;;;;;;5114510;28;19919;-73
2023/02/05 06:23:00;;;;;;;;;;;;;;;;;;5113982;28;19912;-73
2023/02/05 06:25:26;;;;;;;;;;;;;;;;;;5112943;28;20006;-73
2023/02/05 06:27:52;;;;;;;;;;;;;;;;;;5114198;28;19908;-73
2023/02/05 06:30:18;;;;;;;;;;;;;;;;;;5113743;28;20294;-73
2023/02/05 06:32:44;;;;;;;;;;;;;;;;;;5114101;28;19977;-73
2023/02/05 06:35:10;;;;;;;;;;;;;;;;;;5114066;28;19916;-73
2023/02/05 06:37:36;;;;;;;;;;;;;;;;;;5113753;28;19908;-73
2023/02/05 06:40:02;;;;;;;;;;;;;;;;;;5114162;28;19908;-73
2023/02/05 06:42:28;;;;;;;;;;;;;;;;;;5112763;28;19912;-73
2023/02/05 06:44:53;;;;;;;;;;;;;;;;;;5113618;28;19947;-73
2023/02/05 06:47:19;;;;;;;;;;;;;;;;;;5113966;28;19922;-73
2023/02/05 06:49:45;;;;;;;;;;;;;;;;;;5114041;28;19915;-73
2023/02/05 06:52:11;;;;;;;;;;;;;;;;;;5113532;28;19907;-73
2023/02/05 06:54:37;;;;;;;;;;;;;;;;;;5113826;28;19927;-74
2023/02/05 06:57:03;;;;;;;;;;;;;;;;;;5115703;28;19908;-73
2023/02/05 06:59:29;;;;;;;;;;;;;;;;;;5117554;28;20364;-74
2023/02/05 07:01:55;;;;;;;;;;;;;;;;;;5116590;28;19952;-73
2023/02/05 07:04:21;;;;;;;;;;;;;;;;;;5117755;28;19919;-73
2023/02/05 07:06:47;;;;;;;;;;;;;;;;;;5116478;28;19908;-73
2023/02/05 07:09:13;;;;;;;;;;;;;;;;;;5118029;28;19908;-73
2023/02/05 07:11:39;;;;;;;;;;;;;;;;;;5117325;28;19918;-73
2023/02/05 07:14:05;;;;;;;;;;;;;;;;;;5117326;28;19919;-73
2023/02/05 07:16:31;;;;;;;;;;;;;;;;;;5116296;28;19908;-73
2023/02/05 07:18:57;;;;;;;;;;;;;;;;;;5117304;28;19961;-74
2023/02/05 07:21:23;;;;;;;;;;;;;;;;;;5117840;28;19908;-73
2023/02/05 07:23:49;;;;;;;;;;;;;;;;;;5117663;28;19908;-73
2023/02/05 07:26:15;;;;;;;;;;;;;;;;;;5115676;28;19919;-73
2023/02/05 07:28:41;;;;;;;;;;;;;;;;;;5117338;27;19908;-73
2023/02/05 07:31:07;;;;;;;;;;;;;;;;;;5117257;28;19907;-73
2023/02/05 07:33:33;;;;;;;;;;;;;;;;;;5116847;28;20000;-73
2023/02/05 07:35:58;;;;;;;;;;;;;;;;;;5117093;28;19916;-74
2023/02/05 07:38:24;;;;;;;;;;;;;;;;;;5117079;28;19920;-73
2023/02/05 07:40:50;;;;;;;;;;;;;;;;;;5116782;28;19947;-73
2023/02/05 07:43:16;;;;;;;;;;;;;;;;;;5117072;28;19951;-73
2023/02/05 07:45:42;;;;;;;;;;;;;;;;;;5117058;28;19961;-73
2023/02/05 07:48:08;;;;;;;;;;;;;;;;;;5116688;27;19908;-74
2023/02/05 07:50:34;;;;;;;;;;;;;;;;;;5117158;28;19983;-73
2023/02/05 07:53:00;;;;;;;;;;;;;;;;;;5117052;28;19908;-73
2023/02/05 07:55:26;;;;;;;;;;;;;;;;;;5116698;28;20356;-73
2023/02/05 07:57:52;;;;;;;;;;;;;;;;;;5116791;28;19907;-73
2023/02/05 08:00:18;;;;;;;;;;;;;;;;;;5116706;28;19929;-73
2023/02/05 08:02:44;;;;;;;;;;;;;;;;;;5116289;28;19954;-73
2023/02/05 08:05:10;;;;;;;;;;;;;;;;;;5116691;28;19908;-73
2023/02/05 08:07:36;;;;;;;;;;;;;;;;;;5115786;28;19908;-74
2023/02/05 08:10:02;;;;;;;;;;;;;;;;;;5116506;28;19986;-73
2023/02/05 08:12:28;;;;;;;;;;;;;;;;;;5115191;28;20000;-73
2023/02/05 08:14:54;;;;;;;;;;;;;;;;;;5115763;28;19988;-73
2023/02/05 08:17:20;;;;;;;;;;;;;;;;;;5116355;28;19908;-73
2023/02/05 08:19:46;;;;;;;;;;;;;;;;;;5116477;28;20348;-73
2023/02/05 08:22:12;;;;;;;;;;;;;;;;;;5114571;28;19908;-73
2023/02/05 08:24:37;;;;;;;;;;;;;;;;;;5116288;28;19915;-73
2023/02/05 08:27:03;;;;;;;;;;;;;;;;;;5116429;28;19912;-74
2023/02/05 08:29:29;;;;;;;;;;;;;;;;;;5114434;28;19915;-73
2023/02/05 08:31:55;;;;;;;;;;;;;;;;;;5116135;28;19961;-73
2023/02/05 08:34:21;;;;;;;;;;;;;;;;;;5114666;28;19961;-73
2023/02/05 08:36:47;;;;;;;;;;;;;;;;;;5115643;28;19918;-73
2023/02/05 08:39:13;;;;;;;;;;;;;;;;;;5116005;28;20322;-74
2023/02/05 08:41:39;;;;;;;;;;;;;;;;;;5116068;28;20364;-74
2023/02/05 08:44:05;;;;;;;;;;;;;;;;;;5115470;28;20364;-74
2023/02/05 08:46:32;;;;;;;;;;;;;;;;;;5115784;28;20010;-73
2023/02/05 08:48:58;;;;;;;;;;;;;;;;;;5115741;28;19907;-73
2023/02/05 08:51:24;;;;;;;;;;;;;;;;;;5114103;28;20006;-73
2023/02/05 08:53:50;;;;;;;;;;;;;;;;;;5115567;28;19953;-73
2023/02/05 08:56:16;;;;;;;;;;;;;;;;;;5114467;28;20371;-73
2023/02/05 08:58:42;;;;;;;;;;;;;;;;;;5115233;28;19929;-73
2023/02/05 09:01:08;;;;;;;;;;;;;;;;;;5115623;28;20271;-74
2023/02/05 09:03:34;;;;;;;;;;;;;;;;;;5115499;28;20394;-74
2023/02/05 09:06:00;;;;;;;;;;;;;;;;;;5115083;28;19921;-73
2023/02/05 09:08:26;;;;;;;;;;;;;;;;;;5115563;28;19908;-73
2023/02/05 09:10:52;;;;;;;;;;;;;;;;;;5115477;28;20390;-73
2023/02/05 09:13:18;;;;;;;;;;;;;;;;;;5115377;28;19914;-73
2023/02/05 09:15:44;;;;;;;;;;;;;;;;;;5115280;28;20027;-73
2023/02/05 09:18:09;;;;;;;;;;;;;;;;;;5113695;28;19908;-73
2023/02/05 09:20:35;;;;;;;;;;;;;;;;;;5114633;28;19908;-73
2023/02/05 09:23:01;;;;;;;;;;;;;;;;;;5113984;28;19907;-73
2023/02/05 09:25:28;;;;;;;;;;;;;;;;;;5115037;28;19908;-73
2023/02/05 09:27:54;;;;;;;;;;;;;;;;;;5113966;28;19912;-73
2023/02/05 09:30:20;;;;;;;;;;;;;;;;;;5113826;28;19912;-74
2023/02/05 09:32:46;;;;;;;;;;;;;;;;;;5114908;28;20002;-74
2023/02/05 09:35:12;;;;;;;;;;;;;;;;;;5115062;28;19916;-74
2023/02/05 09:37:38;;;;;;;;;;;;;;;;;;5115050;28;19908;-74
2023/02/05 09:40:04;;;;;;;;;;;;;;;;;;5114661;28;19912;-74
2023/02/05 09:42:30;;;;;;;;;;;;;;;;;;5114904;28;19954;-74
2023/02/05 09:44:56;;;;;;;;;;;;;;;;;;5114929;28;19907;-74
2023/02/05 09:47:23;;;;;;;;;;;;;;;;;;5114555;28;19908;-74
2023/02/05 09:49:49;;;;;;;;;;;;;;;;;;5105446;28;19908;-74
2023/02/05 09:52:14;;;;;;;;;;;;;;;;;;5093992;28;19991;-74
2023/02/05 09:54:40;;;;;;;;;;;;;;;;;;5093815;28;19922;-74
2023/02/05 09:57:06;;;;;;;;;;;;;;;;;;5094384;28;19939;-74
2023/02/05 09:59:32;;;;;;;;;;;;;;;;;;5094108;28;20414;-74
2023/02/05 10:01:58;;;;;;;;;;;;;;;;;;5092399;28;20415;-74
2023/02/05 10:04:25;;;;;;;;;;;;;;;;;;5094049;28;19912;-74
2023/02/05 10:06:50;;;;;;;;;;;;;;;;;;5094111;28;19908;-74
2023/02/05 10:09:16;;;;;;;;;;;;;;;;;;5093599;28;19954;-74
2023/02/05 10:11:42;;;;;;;;;;;;;;;;;;5093996;28;19912;-74
2023/02/05 10:14:08;;;;;;;;;;;;;;;;;;5093717;28;19924;-74
2023/02/05 10:16:34;;;;;;;;;;;;;;;;;;5093518;28;19912;-74
2023/02/05 10:19:00;;;;;;;;;;;;;;;;;;5093808;28;19915;-73
2023/02/05 10:21:26;;;;;;;;;;;;;;;;;;5093452;28;19977;-73
2023/02/05 10:23:52;;;;;;;;;;;;;;;;;;5093821;28;19998;-73
2023/02/05 10:26:18;;;;;;;;;;;;;;;;;;5093851;28;19983;-73
2023/02/05 10:28:44;;;;;;;;;;;;;;;;;;5093427;28;19965;-74
2023/02/05 10:31:10;;;;;;;;;;;;;;;;;;5095821;28;19908;-74
2023/02/05 10:33:36;;;;;;;;;;;;;;;;;;5098026;28;19908;-73
2023/02/05 10:36:02;;;;;;;;;;;;;;;;;;5096191;28;19967;-74
2023/02/05 10:38:28;;;;;;;;;;;;;;;;;;5097849;28;19908;-74
2023/02/05 10:40:54;;;;;;;;;;;;;;;;;;5097791;28;20018;-74
2023/02/05 10:43:19;;;;;;;;;;;;;;;;;;5096188;28;20258;-74
2023/02/05 10:45:45;;;;;;;;;;;;;;;;;;5097749;28;20258;-73
2023/02/05 10:48:11;;;;;;;;;;;;;;;;;;5096380;28;20390;-73
2023/02/05 10:50:37;;;;;;;;;;;;;;;;;;5096083;28;19912;-73
2023/02/05 10:53:03;;;;;;;;;;;;;;;;;;5098225;28;19908;-74
2023/02/05 10:55:29;;;;;;;;;;;;;;;;;;5096446;28;20003;-74
2023/02/05 10:57:55;;;;;;;;;;;;;;;;;;5097260;28;19931;-74
2023/02/05 11:00:21;;;;;;;;;;;;;;;;;;5097680;28;19935;-74
2023/02/05 11:02:47;;;;;;;;;;;;;;;;;;5096296;28;19912;-74
2023/02/05 11:05:13;;;;;;;;;;;;;;;;;;5097151;28;19908;-74
2023/02/05 11:07:39;;;;;;;;;;;;;;;;;;5097555;28;20256;-74
2023/02/05 11:10:05;;;;;;;;;;;;;;;;;;5097478;28;20224;-74
2023/02/05 11:12:31;;;;;;;;;;;;;;;;;;5097160;28;20436;-75
2023/02/05 11:14:57;;;;;;;;;;;;;;;;;;5098054;28;19924;-74
2023/02/05 11:17:23;;;;;;;;;;;;;;;;;;5098391;28;20314;-74
2023/02/05 11:19:49;;;;;;;;;;;;;;;;;;5096778;28;20006;-74
2023/02/05 11:22:15;;;;;;;;;;;;;;;;;;5097573;28;19908;-74
2023/02/05 11:24:41;;;;;;;;;;;;;;;;;;5095473;28;19951;-75
2023/02/05 11:27:07;;;;;;;;;;;;;;;;;;5095703;28;19916;-74
2023/02/05 11:29:33;;;;;;;;;;;;;;;;;;5096942;28;19912;-74
2023/02/05 11:31:59;;;;;;;;;;;;;;;;;;5106558;28;20002;-74
2023/02/05 11:34:25;;;;;;;;;;;;;;;;;;5116981;28;19916;-74
2023/02/05 11:36:51;;;;;;;;;;;;;;;;;;5117189;28;19908;-74
2023/02/05 11:39:17;;;;;;;;;;;;;;;;;;5116767;28;19930;-74
2023/02/05 11:41:50;;;;;;;;;;;;;;;;;;5116804;28;19953;-74
2023/02/05 11:44:16;;;;;;;;;;;;;;;;;;5116798;28;19908;-74
2023/02/05 11:46:42;;;;;;;;;;;;;;;;;;5115296;28;19908;-74
2023/02/05 11:49:08;;;;;;;;;;;;;;;;;;5116920;27;20002;-74
2023/02/05 11:51:34;;;;;;;;;;;;;;;;;;5116836;28;19957;-74
2023/02/05 11:54:00;;;;;;;;;;;;;;;;;;5115244;28;19915;-74
2023/02/05 11:56:26;;;;;;;;;;;;;;;;;;5115572;28;20007;-74
2023/02/05 11:58:52;;;;;;;;;;;;;;;;;;5116770;28;19908;-74
2023/02/05 12:01:18;;;;;;;;;;;;;;;;;;5114986;28;19908;-74
2023/02/05 12:03:44;;;;;;;;;;;;;;;;;;5116707;28;19962;-74
2023/02/05 12:06:10;;;;;;;;;;;;;;;;;;5115280;28;19911;-74
2023/02/05 12:08:36;;;;;;;;;;;;;;;;;;5116289;28;19912;-74
2023/02/05 12:11:02;;;;;;;;;;;;;;;;;;5116514;27;19908;-75
2023/02/05 12:13:28;;;;;;;;;;;;;;;;;;5116552;28;19915;-74
2023/02/05 12:15:54;;;;;;;;;;;;;;;;;;5114618;28;19920;-74
2023/02/05 12:18:20;;;;;;;;;;;;;;;;;;5116344;27;19908;-74
2023/02/05 12:20:46;;;;;;;;;;;;;;;;;;5116387;28;20016;-74
2023/02/05 12:23:12;;;;;;;;;;;;;;;;;;5116622;28;19965;-74
2023/02/05 12:25:38;;;;;;;;;;;;;;;;;;5116347;28;20322;-74
2023/02/05 12:28:04;;;;;;;;;;;;;;;;;;5115869;28;19907;-74
2023/02/05 12:30:30;;;;;;;;;;;;;;;;;;5116117;28;19908;-74
2023/02/05 12:32:57;;;;;;;;;;;;;;;;;;5116151;28;19961;-74
2023/02/05 12:35:23;;;;;;;;;;;;;;;;;;5114328;28;20379;-74
2023/02/05 12:37:49;;;;;;;;;;;;;;;;;;5116100;28;19951;-74
2023/02/05 12:40:15;;;;;;;;;;;;;;;;;;5115969;28;19908;-74
2023/02/05 12:42:41;;;;;;;;;;;;;;;;;;5116390;28;19907;-73
2023/02/05 12:45:07;;;;;;;;;;;;;;;;;;5116324;28;20348;-75
2023/02/05 12:47:33;;;;;;;;;;;;;;;;;;5116483;27;19923;-73
2023/02/05 12:50:00;;;;;;;;;;;;;;;;;;5115486;28;19922;-74
2023/02/05 12:52:26;;;;;;;;;;;;;;;;;;5115806;28;19981;-74
2023/02/05 12:54:52;;;;;;;;;;;;;;;;;;5114375;28;19950;-74
2023/02/05 12:57:18;;;;;;;;;;;;;;;;;;5115219;28;19908;-75
2023/02/05 12:59:44;;;;;;;;;;;;;;;;;;5115676;28;19916;-74
2023/02/05 13:02:10;;;;;;;;;;;;;;;;;;5115592;28;20379;-73
2023/02/05 13:04:36;;;;;;;;;;;;;;;;;;5115233;28;19907;-74
2023/02/05 13:07:04;;;;;;;;;;;;;;;;;;5114154;28;20394;-73
2023/02/05 13:09:30;;;;;;;;;;;;;;;;;;5115447;28;20010;-74
2023/02/05 13:11:56;;;;;;;;;;;;;;;;;;5113640;28;19947;-73
2023/02/05 13:14:22;;;;;;;;;;;;;;;;;;5115050;28;19927;-74
2023/02/05 13:16:48;;;;;;;;;;;;;;;;;;5114339;28;19915;-74
2023/02/05 13:19:14;;;;;;;;;;;;;;;;;;5114858;28;19912;-74
2023/02/05 13:29:54;;;;;;;;;;;;;;;;;;5115137;28;19914;-73
2023/02/05 13:32:19;;;;;;;;;;;;;;;;;;5114803;28;19911;-73
2023/02/05 13:34:45;;;;;;;;;;;;;;;;;;5115394;28;19916;-73
2023/02/05 13:37:11;;;;;;;;;;;;;;;;;;5113979;28;19908;-73
2023/02/05 13:39:37;;;;;;;;;;;;;;;;;;5114433;28;19915;-73
2023/02/05 13:42:03;;;;;;;;;;;;;;;;;;5114827;28;19908;-73
2023/02/05 13:44:29;;;;;;;;;;;;;;;;;;5113532;28;19914;-73
2023/02/05 13:46:55;;;;;;;;;;;;;;;;;;5114247;28;20287;-73
2023/02/05 13:49:21;;;;;;;;;;;;;;;;;;5114910;28;19908;-73
2023/02/05 13:51:47;;;;;;;;;;;;;;;;;;5114623;28;19991;-73
2023/02/05 13:54:13;;;;;;;;;;;;;;;;;;5114163;28;20364;-73
2023/02/05 13:56:39;;;;;;;;;;;;;;;;;;5114962;28;19953;-72
2023/02/05 13:59:05;;;;;;;;;;;;;;;;;;5114522;28;20343;-73
2023/02/05 14:01:33;;;;;;;;;;;;;;;;;;5114150;28;20368;-73
2023/02/05 14:03:59;;;;;;;;;;;;;;;;;;5114543;28;19908;-72
2023/02/05 14:06:25;;;;;;;;;;;;;;;;;;5113598;28;19908;-73
2023/02/05 14:08:51;;;;;;;;;;;;;;;;;;5113350;28;20007;-74
2023/02/05 14:11:18;;;;;;;;;;;;;;;;;;5115056;28;19907;-74
2023/02/05 14:13:44;;;;;;;;;;;;;;;;;;5114151;28;20022;-74
2023/02/05 14:16:11;;;;;;;;;;;;;;;;;;5113713;28;21311;-73
2023/02/05 14:18:37;;;;;;;;;;;;;;;;;;5113651;28;19947;-73
2023/02/05 14:21:03;;;;;;;;;;;;;;;;;;5114343;28;19908;-73
2023/02/05 14:23:29;;;;;;;;;;;;;;;;;;5114307;28;19907;-72
2023/02/05 14:25:55;;;;;;;;;;;;;;;;;;5114311;28;19914;-73
2023/02/05 14:28:21;;;;;;;;;;;;;;;;;;5114077;28;19958;-73
2023/02/05 14:30:47;;;;;;;;;;;;;;;;;;5114784;28;19908;-73
2023/02/05 14:33:13;;;;;;;;;;;;;;;;;;5114256;28;19908;-72
2023/02/05 14:35:39;;;;;;;;;;;;;;;;;;5113738;28;20276;-73
2023/02/05 14:38:05;;;;;;;;;;;;;;;;;;5112805;28;20291;-72
2023/02/05 14:40:32;;;;;;;;;;;;;;;;;;5114112;28;19907;-72
2023/02/05 14:42:58;;;;;;;;;;;;;;;;;;5113680;28;19998;-72
2023/02/05 14:45:26;;;;;;;;;;;;;;;;;;5112763;28;19951;-72
2023/02/05 14:47:52;;;;;;;;;;;;;;;;;;5112911;28;19939;-73
2023/02/05 14:50:18;;;;;;;;;;;;;;;;;;5113719;28;19950;-73
2023/02/05 14:52:44;;;;;;;;;;;;;;;;;;5113985;28;19908;-73
2023/02/05 14:55:09;;;;;;;;;;;;;;;;;;5112928;28;20252;-73
2023/02/05 14:57:35;;;;;;;;;;;;;;;;;;5113642;28;20270;-73
2023/02/05 15:00:01;;;;;;;;;;;;;;;;;;5114029;28;20276;-73
2023/02/05 15:02:27;;;;;;;;;;;;;;;;;;5114030;28;19908;-73
2023/02/05 15:04:53;;;;;;;;;;;;;;;;;;5112452;28;20271;-73
2023/02/05 15:07:19;;;;;;;;;;;;;;;;;;5114234;28;20271;-73
2023/02/05 15:09:45;;;;;;;;;;;;;;;;;;5113546;28;20252;-73
2023/02/05 15:12:11;;;;;;;;;;;;;;;;;;5113925;28;20320;-73
2023/02/05 15:14:40;;;;;;;;;;;;;;;;;;5112484;28;20381;-73
2023/02/05 15:17:06;;;;;;;;;;;;;;;;;;5113679;28;19908;-73
2023/02/05 15:19:32;;;;;;;;;;;;;;;;;;5116322;28;19908;-73
2023/02/05 15:21:58;;;;;;;;;;;;;;;;;;5117550;28;19908;-73
2023/02/05 15:24:24;;;;;;;;;;;;;;;;;;5117122;27;20074;-73
2023/02/05 15:26:49;;;;;;;;;;;;;;;;;;5117510;28;19931;-73
2023/02/05 15:29:15;;;;;;;;;;;;;;;;;;5117418;28;19931;-73
2023/02/05 15:31:41;;;;;;;;;;;;;;;;;;5117039;28;20336;-73
2023/02/05 15:34:07;;;;;;;;;;;;;;;;;;5117230;28;20386;-74
2023/02/05 15:36:33;;;;;;;;;;;;;;;;;;5115915;28;19955;-73
2023/02/05 15:39:01;;;;;;;;;;;;;;;;;;5115572;28;19915;-73
2023/02/05 15:41:28;;;;;;;;;;;;;;;;;;5117228;28;19908;-73
2023/02/05 15:43:54;;;;;;;;;;;;;;;;;;5117027;28;20045;-73
2023/02/05 15:46:20;;;;;;;;;;;;;;;;;;5116597;28;19952;-73
2023/02/05 15:48:46;;;;;;;;;;;;;;;;;;5117057;28;19915;-73
2023/02/05 15:51:12;;;;;;;;;;;;;;;;;;5117178;27;19908;-73
2023/02/05 15:53:37;;;;;;;;;;;;;;;;;;5116539;28;20010;-73
2023/02/05 15:56:03;;;;;;;;;;;;;;;;;;5116809;28;20290;-73
2023/02/05 15:58:29;;;;;;;;;;;;;;;;;;5116794;28;20342;-73
2023/02/05 16:00:55;;;;;;;;;;;;;;;;;;5116424;28;20317;-73
2023/02/05 16:03:21;;;;;;;;;;;;;;;;;;5116727;28;19914;-74
2023/02/05 16:05:47;;;;;;;;;;;;;;;;;;5116668;28;19908;-74
2023/02/05 16:08:13;;;;;;;;;;;;;;;;;;5116255;28;19908;-73
2023/02/05 16:10:39;;;;;;;;;;;;;;;;;;5116610;28;19908;-73
2023/02/05 16:13:05;;;;;;;;;;;;;;;;;;5116109;28;19915;-74
2023/02/05 16:15:31;;;;;;;;;;;;;;;;;;5116340;28;19920;-74
2023/02/05 16:17:58;;;;;;;;;;;;;;;;;;5116443;28;19908;-73
2023/02/05 16:20:26;;;;;;;;;;;;;;;;;;5116079;28;19912;-74
2023/02/05 16:22:54;;;;;;;;;;;;;;;;;;5116421;28;19908;-73
2023/02/05 16:25:20;;;;;;;;;;;;;;;;;;5116508;28;20379;-73
2023/02/05 16:27:46;;;;;;;;;;;;;;;;;;5115904;28;19908;-73
2023/02/05 16:30:11;;;;;;;;;;;;;;;;;;5116063;28;20329;-74
2023/02/05 16:32:38;;;;;;;;;;;;;;;;;;5114967;28;19914;-73
2023/02/05 16:35:04;;;;;;;;;;;;;;;;;;5115649;28;20129;-73
2023/02/05 16:37:30;;;;;;;;;;;;;;;;;;5116121;28;20404;-73
2023/02/05 16:39:56;;;;;;;;;;;;;;;;;;5116231;28;20002;-73
2023/02/05 16:42:22;;;;;;;;;;;;;;;;;;5115589;28;19951;-73
2023/02/05 16:44:48;;;;;;;;;;;;;;;;;;5115944;28;19908;-73
2023/02/05 16:47:13;;;;;;;;;;;;;;;;;;5115941;28;19931;-73